sensor_id;sensor_type;location;lat;lon;timestamp;pressure;altitude;pressure_sealevel;temperature;humidity
72116;BME280;59991;52.140;5.428;2023-03-01T00:00:19;103258.31;;;-1.27;76.89
72116;BME280;59991;52.140;5.428;2023-03-01T00:00:50;103267.72;;;-1.24;76.84
72116;BME280;59991;52.140;5.428;2023-03-01T00:01:24;103266.91;;;-1.25;77.07
72116;BME280;59991;52.140;5.428;2023-03-01T00:01:56;103259.69;;;-1.24;77.08
72116;BME280;59991;52.140;5.428;2023-03-01T00:02:27;103258.06;;;-1.25;76.85
72116;BME280;59991;52.140;5.428;2023-03-01T00:02:59;103262.59;;;-1.26;77.04
72116;BME280;59991;52.140;5.428;2023-03-01T00:03:31;103258.53;;;-1.28;77.45
72116;BME280;59991;52.140;5.428;2023-03-01T00:04:03;103261.78;;;-1.26;77.16
72116;BME280;59991;52.140;5.428;2023-03-01T00:04:34;103262.03;;;-1.28;77.24
72116;BME280;59991;52.140;5.428;2023-03-01T00:05:07;103262.84;;;-1.27;77.50
72116;BME280;59991;52.140;5.428;2023-03-01T00:05:45;103266.81;;;-1.30;77.43
72116;BME280;59991;52.140;5.428;2023-03-01T00:06:17;103263.31;;;-1.30;77.41
72116;BME280;59991;52.140;5.428;2023-03-01T00:06:49;103266.00;;;-1.30;77.51
72116;BME280;59991;52.140;5.428;2023-03-01T00:07:20;103259.00;;;-1.31;77.81
72116;BME280;59991;52.140;5.428;2023-03-01T00:07:53;103259.00;;;-1.31;77.60
72116;BME280;59991;52.140;5.428;2023-03-01T00:08:25;103261.91;;;-1.33;77.47
72116;BME280;59991;52.140;5.428;2023-03-01T00:08:57;103265.41;;;-1.32;77.39
72116;BME280;59991;52.140;5.428;2023-03-01T00:09:28;103262.72;;;-1.32;77.76
72116;BME280;59991;52.140;5.428;2023-03-01T00:09:59;103272.06;;;-1.35;77.93
72116;BME280;59991;52.140;5.428;2023-03-01T00:10:31;103263.78;;;-1.33;77.76
72116;BME280;59991;52.140;5.428;2023-03-01T00:11:17;103258.69;;;-1.35;78.13
72116;BME280;59991;52.140;5.428;2023-03-01T00:11:49;103271.25;;;-1.35;77.85
72116;BME280;59991;52.140;5.428;2023-03-01T00:12:21;103268.59;;;-1.35;78.00
72116;BME280;59991;52.140;5.428;2023-03-01T00:12:53;103266.97;;;-1.36;77.73
72116;BME280;59991;52.140;5.428;2023-03-01T00:13:25;103269.63;;;-1.36;77.75
72116;BME280;59991;52.140;5.428;2023-03-01T00:13:59;103267.19;;;-1.38;77.88
72116;BME280;59991;52.140;5.428;2023-03-01T00:14:32;103269.88;;;-1.38;78.06
72116;BME280;59991;52.140;5.428;2023-03-01T00:15:03;103270.09;;;-1.40;78.25
72116;BME280;59991;52.140;5.428;2023-03-01T00:15:40;103272.53;;;-1.38;78.06
72116;BME280;59991;52.140;5.428;2023-03-01T00:16:16;103265.56;;;-1.39;78.36
72116;BME280;59991;52.140;5.428;2023-03-01T00:16:47;103270.09;;;-1.40;78.16
72116;BME280;59991;52.140;5.428;2023-03-01T00:17:19;103264.75;;;-1.40;78.19
72116;BME280;59991;52.140;5.428;2023-03-01T00:17:50;103270.91;;;-1.39;78.28
72116;BME280;59991;52.140;5.428;2023-03-01T00:18:22;103269.53;;;-1.42;78.37
72116;BME280;59991;52.140;5.428;2023-03-01T00:18:54;103268.47;;;-1.41;78.64
72116;BME280;59991;52.140;5.428;2023-03-01T00:19:26;103265.81;;;-1.41;78.42
72116;BME280;59991;52.140;5.428;2023-03-01T00:19:57;103271.97;;;-1.40;79.16
72116;BME280;59991;52.140;5.428;2023-03-01T00:20:29;103268.47;;;-1.41;78.83
72116;BME280;59991;52.140;5.428;2023-03-01T00:21:00;103272.78;;;-1.40;78.46
72116;BME280;59991;52.140;5.428;2023-03-01T00:21:32;103266.84;;;-1.42;78.96
72116;BME280;59991;52.140;5.428;2023-03-01T00:22:05;103259.41;;;-1.40;78.43
72116;BME280;59991;52.140;5.428;2023-03-01T00:22:36;103269.53;;;-1.42;78.63
72116;BME280;59991;52.140;5.428;2023-03-01T00:23:08;103271.97;;;-1.40;78.62
72116;BME280;59991;52.140;5.428;2023-03-01T00:23:40;103263.13;;;-1.41;78.49
72116;BME280;59991;52.140;5.428;2023-03-01T00:24:12;103265.22;;;-1.43;78.87
72116;BME280;59991;52.140;5.428;2023-03-01T00:24:43;103264.16;;;-1.42;78.49
72116;BME280;59991;52.140;5.428;2023-03-01T00:25:15;103265.81;;;-1.41;78.60
72116;BME280;59991;52.140;5.428;2023-03-01T00:25:46;103258.00;;;-1.42;78.53
72116;BME280;59991;52.140;5.428;2023-03-01T00:26:20;103259.28;;;-1.45;78.69
72116;BME280;59991;52.140;5.428;2023-03-01T00:26:55;103258.81;;;-1.42;78.62
72116;BME280;59991;52.140;5.428;2023-03-01T00:27:27;103259.28;;;-1.45;79.08
72116;BME280;59991;52.140;5.428;2023-03-01T00:27:58;103256.16;;;-1.42;79.04
72116;BME280;59991;52.140;5.428;2023-03-01T00:28:31;103267.44;;;-1.40;78.86
72116;BME280;59991;52.140;5.428;2023-03-01T00:29:03;103254.75;;;-1.44;79.06
72116;BME280;59991;52.140;5.428;2023-03-01T00:29:34;103264.16;;;-1.42;78.87
72116;BME280;59991;52.140;5.428;2023-03-01T00:30:06;103262.53;;;-1.43;78.82
72116;BME280;59991;52.140;5.428;2023-03-01T00:30:38;103256.38;;;-1.43;79.01
72116;BME280;59991;52.140;5.428;2023-03-01T00:31:12;103253.47;;;-1.42;78.97
72116;BME280;59991;52.140;5.428;2023-03-01T00:31:44;103250.78;;;-1.42;79.24
72116;BME280;59991;52.140;5.428;2023-03-01T00:32:15;103252.66;;;-1.42;78.99
72116;BME280;59991;52.140;5.428;2023-03-01T00:32:47;103245.69;;;-1.43;78.99
72116;BME280;59991;52.140;5.428;2023-03-01T00:33:18;103253.94;;;-1.45;78.92
72116;BME280;59991;52.140;5.428;2023-03-01T00:33:53;103248.13;;;-1.42;79.09
72116;BME280;59991;52.140;5.428;2023-03-01T00:34:28;103237.88;;;-1.45;78.92
72116;BME280;59991;52.140;5.428;2023-03-01T00:34:59;103244.28;;;-1.46;79.04
72116;BME280;59991;52.140;5.428;2023-03-01T00:35:32;103247.53;;;-1.44;79.27
72116;BME280;59991;52.140;5.428;2023-03-01T00:36:04;103239.97;;;-1.47;79.16
72116;BME280;59991;52.140;5.428;2023-03-01T00:36:37;103244.88;;;-1.44;79.31
72116;BME280;59991;52.140;5.428;2023-03-01T00:37:08;103230.56;;;-1.49;79.39
72116;BME280;59991;52.140;5.428;2023-03-01T00:37:40;103240.44;;;-1.50;79.11
72116;BME280;59991;52.140;5.428;2023-03-01T00:38:12;103241.84;;;-1.47;79.33
72116;BME280;59991;52.140;5.428;2023-03-01T00:38:45;103252.31;;;-1.46;79.20
72116;BME280;59991;52.140;5.428;2023-03-01T00:39:16;103242.88;;;-1.48;79.25
72116;BME280;59991;52.140;5.428;2023-03-01T00:39:48;103244.16;;;-1.51;79.08
72116;BME280;59991;52.140;5.428;2023-03-01T00:40:19;103246.84;;;-1.51;78.92
72116;BME280;59991;52.140;5.428;2023-03-01T00:40:51;103246.28;;;-1.53;78.99
72116;BME280;59991;52.140;5.428;2023-03-01T00:41:23;103249.53;;;-1.51;79.04
72116;BME280;59991;52.140;5.428;2023-03-01T00:41:55;103251.63;;;-1.53;79.47
72116;BME280;59991;52.140;5.428;2023-03-01T00:42:27;103248.72;;;-1.51;79.11
72116;BME280;59991;52.140;5.428;2023-03-01T00:42:59;103254.88;;;-1.51;79.13
72116;BME280;59991;52.140;5.428;2023-03-01T00:43:31;103248.72;;;-1.51;79.48
72116;BME280;59991;52.140;5.428;2023-03-01T00:44:08;103239.63;;;-1.50;79.12
72116;BME280;59991;52.140;5.428;2023-03-01T00:44:39;103246.28;;;-1.53;79.31
72116;BME280;59991;52.140;5.428;2023-03-01T00:45:11;103250.56;;;-1.52;79.51
72116;BME280;59991;52.140;5.428;2023-03-01T00:45:44;103252.44;;;-1.52;79.30
72116;BME280;59991;52.140;5.428;2023-03-01T00:46:19;103254.28;;;-1.53;79.16
72116;BME280;59991;52.140;5.428;2023-03-01T00:46:51;103251.38;;;-1.51;79.50
72116;BME280;59991;52.140;5.428;2023-03-01T00:47:22;103250.81;;;-1.53;79.65
72116;BME280;59991;52.140;5.428;2023-03-01T00:47:54;103248.94;;;-1.53;79.61
72116;BME280;59991;52.140;5.428;2023-03-01T00:48:25;103256.75;;;-1.51;79.72
72116;BME280;59991;52.140;5.428;2023-03-01T00:48:57;103251.06;;;-1.55;79.74
72116;BME280;59991;52.140;5.428;2023-03-01T00:49:28;103246.53;;;-1.54;79.69
72116;BME280;59991;52.140;5.428;2023-03-01T00:50:00;103254.88;;;-1.51;79.61
72116;BME280;59991;52.140;5.428;2023-03-01T00:50:31;103243.59;;;-1.53;79.69
72116;BME280;59991;52.140;5.428;2023-03-01T00:51:29;103244.16;;;-1.51;79.57
72116;BME280;59991;52.140;5.428;2023-03-01T00:52:00;103254.06;;;-1.51;79.60
72116;BME280;59991;52.140;5.428;2023-03-01T00:52:32;103246.28;;;-1.53;79.68
72116;BME280;59991;52.140;5.428;2023-03-01T00:53:03;103250.00;;;-1.54;79.89
72116;BME280;59991;52.140;5.428;2023-03-01T00:53:36;103250.00;;;-1.54;79.92
72116;BME280;59991;52.140;5.428;2023-03-01T00:54:08;103258.03;;;-1.54;79.68
72116;BME280;59991;52.140;5.428;2023-03-01T00:54:40;103241.06;;;-1.59;80.03
72116;BME280;59991;52.140;5.428;2023-03-01T00:55:12;103247.59;;;-1.55;79.77
72116;BME280;59991;52.140;5.428;2023-03-01T00:55:43;103245.72;;;-1.55;79.78
72116;BME280;59991;52.140;5.428;2023-03-01T00:56:15;103250.50;;;-1.57;80.00
72116;BME280;59991;52.140;5.428;2023-03-01T00:56:46;103243.16;;;-1.61;80.19
72116;BME280;59991;52.140;5.428;2023-03-01T00:57:18;103248.63;;;-1.56;80.22
72116;BME280;59991;52.140;5.428;2023-03-01T00:57:49;103252.13;;;-1.56;80.18
72116;BME280;59991;52.140;5.428;2023-03-01T00:58:20;103240.59;;;-1.56;80.29
72116;BME280;59991;52.140;5.428;2023-03-01T00:58:52;103245.13;;;-1.57;80.09
72116;BME280;59991;52.140;5.428;2023-03-01T00:59:23;103245.13;;;-1.57;79.87
72116;BME280;59991;52.140;5.428;2023-03-01T00:59:55;103239.78;;;-1.57;80.38
72116;BME280;59991;52.140;5.428;2023-03-01T01:00:26;103234.09;;;-1.60;80.18
72116;BME280;59991;52.140;5.428;2023-03-01T01:00:59;103240.59;;;-1.56;80.37
72116;BME280;59991;52.140;5.428;2023-03-01T01:01:31;103237.00;;;-1.62;80.07
72116;BME280;59991;52.140;5.428;2023-03-01T01:02:03;103237.34;;;-1.58;80.20
72116;BME280;59991;52.140;5.428;2023-03-01T01:02:35;103235.47;;;-1.58;79.99
72116;BME280;59991;52.140;5.428;2023-03-01T01:03:06;103238.97;;;-1.57;80.04
72116;BME280;59991;52.140;5.428;2023-03-01T01:03:38;103237.34;;;-1.58;80.46
72116;BME280;59991;52.140;5.428;2023-03-01T01:04:11;103236.53;;;-1.59;80.21
72116;BME280;59991;52.140;5.428;2023-03-01T01:04:45;103241.06;;;-1.59;80.10
72116;BME280;59991;52.140;5.428;2023-03-01T01:05:16;103237.59;;;-1.60;80.30
72116;BME280;59991;52.140;5.428;2023-03-01T01:05:52;103235.72;;;-1.59;80.33
72116;BME280;59991;52.140;5.428;2023-03-01T01:06:27;103234.31;;;-1.62;80.14
72116;BME280;59991;52.140;5.428;2023-03-01T01:06:59;103234.31;;;-1.62;80.34
72116;BME280;59991;52.140;5.428;2023-03-01T01:07:30;103234.78;;;-1.65;80.53
72116;BME280;59991;52.140;5.428;2023-03-01T01:08:01;103230.84;;;-1.62;80.21
72116;BME280;59991;52.140;5.428;2023-03-01T01:08:33;103238.88;;;-1.62;80.16
72116;BME280;59991;52.140;5.428;2023-03-01T01:09:06;103239.69;;;-1.62;80.21
72116;BME280;59991;52.140;5.428;2023-03-01T01:09:37;103242.34;;;-1.62;80.44
72116;BME280;59991;52.140;5.428;2023-03-01T01:10:09;103226.31;;;-1.62;80.54
72116;BME280;59991;52.140;5.428;2023-03-01T01:10:48;103227.13;;;-1.61;80.14
72116;BME280;59991;52.140;5.428;2023-03-01T01:11:20;103231.66;;;-1.62;80.35
72116;BME280;59991;52.140;5.428;2023-03-01T01:11:52;103230.03;;;-1.63;80.39
72116;BME280;59991;52.140;5.428;2023-03-01T01:12:24;103222.22;;;-1.64;80.56
72116;BME280;59991;52.140;5.428;2023-03-01T01:12:55;103220.94;;;-1.62;80.51
72116;BME280;59991;52.140;5.428;2023-03-01T01:13:26;103230.03;;;-1.63;80.65
72116;BME280;59991;52.140;5.428;2023-03-01T01:13:58;103222.47;;;-1.66;80.86
72116;BME280;59991;52.140;5.428;2023-03-01T01:14:30;103216.06;;;-1.65;80.80
72116;BME280;59991;52.140;5.428;2023-03-01T01:15:01;103223.63;;;-1.62;80.88
72116;BME280;59991;52.140;5.428;2023-03-01T01:15:34;103219.31;;;-1.63;80.94
72116;BME280;59991;52.140;5.428;2023-03-01T01:16:06;103222.00;;;-1.63;80.72
72116;BME280;59991;52.140;5.428;2023-03-01T01:16:38;103220.13;;;-1.62;80.86
72116;BME280;59991;52.140;5.428;2023-03-01T01:17:09;103223.03;;;-1.64;80.76
72116;BME280;59991;52.140;5.428;2023-03-01T01:17:40;103209.09;;;-1.66;81.14
72116;BME280;59991;52.140;5.428;2023-03-01T01:18:12;103219.31;;;-1.63;81.13
72116;BME280;59991;52.140;5.428;2023-03-01T01:18:44;103217.69;;;-1.64;81.03
72116;BME280;59991;52.140;5.428;2023-03-01T01:19:16;103212.34;;;-1.64;81.30
72116;BME280;59991;52.140;5.428;2023-03-01T01:19:47;103212.56;;;-1.65;81.22
72116;BME280;59991;52.140;5.428;2023-03-01T01:20:19;103222.47;;;-1.66;81.21
72116;BME280;59991;52.140;5.428;2023-03-01T01:20:50;103214.44;;;-1.66;80.76
72116;BME280;59991;52.140;5.428;2023-03-01T01:21:23;103212.56;;;-1.65;81.14
72116;BME280;59991;52.140;5.428;2023-03-01T01:21:55;103218.75;;;-1.65;81.35
72116;BME280;59991;52.140;5.428;2023-03-01T01:22:26;103220.59;;;-1.65;81.33
72116;BME280;59991;52.140;5.428;2023-03-01T01:22:58;103208.03;;;-1.65;81.04
72116;BME280;59991;52.140;5.428;2023-03-01T01:23:29;103210.72;;;-1.65;80.92
72116;BME280;59991;52.140;5.428;2023-03-01T01:24:03;103209.56;;;-1.69;81.27
72116;BME280;59991;52.140;5.428;2023-03-01T01:24:34;103212.56;;;-1.65;80.99
72116;BME280;59991;52.140;5.428;2023-03-01T01:25:06;103211.19;;;-1.68;80.95
72116;BME280;59991;52.140;5.428;2023-03-01T01:25:38;103217.13;;;-1.66;81.07
72116;BME280;59991;52.140;5.428;2023-03-01T01:26:13;103210.94;;;-1.66;81.15
72116;BME280;59991;52.140;5.428;2023-03-01T01:26:45;103214.44;;;-1.66;81.63
72116;BME280;59991;52.140;5.428;2023-03-01T01:27:17;103213.63;;;-1.66;81.47
72116;BME280;59991;52.140;5.428;2023-03-01T01:27:48;103206.66;;;-1.67;81.32
72116;BME280;59991;52.140;5.428;2023-03-01T01:28:19;103218.97;;;-1.66;81.66
72116;BME280;59991;52.140;5.428;2023-03-01T01:28:52;103201.31;;;-1.67;81.61
72116;BME280;59991;52.140;5.428;2023-03-01T01:29:24;103200.97;;;-1.71;81.52
72116;BME280;59991;52.140;5.428;2023-03-01T01:29:55;103203.16;;;-1.68;81.32
72116;BME280;59991;52.140;5.428;2023-03-01T01:30:26;103206.88;;;-1.69;81.54
72116;BME280;59991;52.140;5.428;2023-03-01T01:30:58;103206.06;;;-1.69;81.10
72116;BME280;59991;52.140;5.428;2023-03-01T01:31:31;103198.03;;;-1.69;81.25
72116;BME280;59991;52.140;5.428;2023-03-01T01:32:03;103202.59;;;-1.70;81.13
72116;BME280;59991;52.140;5.428;2023-03-01T01:32:34;103199.91;;;-1.70;81.20
72116;BME280;59991;52.140;5.428;2023-03-01T01:33:06;103199.66;;;-1.68;81.24
72116;BME280;59991;52.140;5.428;2023-03-01T01:33:37;103192.69;;;-1.69;81.36
72116;BME280;59991;52.140;5.428;2023-03-01T01:34:14;103202.59;;;-1.70;81.34
72116;BME280;59991;52.140;5.428;2023-03-01T01:34:46;103195.59;;;-1.71;81.45
72116;BME280;59991;52.140;5.428;2023-03-01T01:35:18;103199.09;;;-1.70;81.27
72116;BME280;59991;52.140;5.428;2023-03-01T01:35:49;103203.63;;;-1.71;81.47
72116;BME280;59991;52.140;5.428;2023-03-01T01:36:21;103201.78;;;-1.70;81.82
72116;BME280;59991;52.140;5.428;2023-03-01T01:36:53;103193.97;;;-1.72;81.83
72116;BME280;59991;52.140;5.428;2023-03-01T01:37:25;103192.13;;;-1.71;81.97
72116;BME280;59991;52.140;5.428;2023-03-01T01:38:02;103196.09;;;-1.74;81.61
72116;BME280;59991;52.140;5.428;2023-03-01T01:38:34;103200.38;;;-1.73;81.64
72116;BME280;59991;52.140;5.428;2023-03-01T01:39:06;103196.09;;;-1.74;81.94
72116;BME280;59991;52.140;5.428;2023-03-01T01:39:38;103198.19;;;-1.76;81.87
72116;BME280;59991;52.140;5.428;2023-03-01T01:40:10;103197.97;;;-1.75;81.84
72116;BME280;59991;52.140;5.428;2023-03-01T01:40:48;103203.53;;;-1.76;81.81
72116;BME280;59991;52.140;5.428;2023-03-01T01:41:21;103201.09;;;-1.78;82.03
72116;BME280;59991;52.140;5.428;2023-03-01T01:41:53;103204.81;;;-1.79;81.94
72116;BME280;59991;52.140;5.428;2023-03-01T01:42:25;103204.00;;;-1.79;82.19
72116;BME280;59991;52.140;5.428;2023-03-01T01:42:56;103201.56;;;-1.81;82.28
72116;BME280;59991;52.140;5.428;2023-03-01T01:43:31;103205.28;;;-1.82;82.34
72116;BME280;59991;52.140;5.428;2023-03-01T01:44:24;103203.44;;;-1.81;81.95
72116;BME280;59991;52.140;5.428;2023-03-01T01:45:24;103209.59;;;-1.81;81.86
72116;BME280;59991;52.140;5.428;2023-03-01T01:45:59;103201.00;;;-1.83;82.24
72116;BME280;59991;52.140;5.428;2023-03-01T01:46:33;103205.28;;;-1.82;81.99
72116;BME280;59991;52.140;5.428;2023-03-01T01:47:43;103202.63;;;-1.82;82.14
72116;BME280;59991;52.140;5.428;2023-03-01T01:48:19;103201.81;;;-1.82;82.24
72116;BME280;59991;52.140;5.428;2023-03-01T01:48:57;103205.06;;;-1.80;82.87
72116;BME280;59991;52.140;5.428;2023-03-01T01:50:18;103204.81;;;-1.79;82.91
72116;BME280;59991;52.140;5.428;2023-03-01T01:50:59;103199.72;;;-1.80;82.57
72116;BME280;59991;52.140;5.428;2023-03-01T01:51:36;103198.91;;;-1.81;82.50
72116;BME280;59991;52.140;5.428;2023-03-01T01:52:18;103199.72;;;-1.80;82.34
72116;BME280;59991;52.140;5.428;2023-03-01T01:52:52;103198.09;;;-1.81;82.45
72116;BME280;59991;52.140;5.428;2023-03-01T01:53:24;103194.59;;;-1.82;82.22
72116;BME280;59991;52.140;5.428;2023-03-01T01:53:59;103199.13;;;-1.82;82.57
72116;BME280;59991;52.140;5.428;2023-03-01T01:54:44;103189.94;;;-1.86;82.29
72116;BME280;59991;52.140;5.428;2023-03-01T01:55:22;103192.97;;;-1.83;82.68
72116;BME280;59991;52.140;5.428;2023-03-01T01:55:58;103193.22;;;-1.84;82.72
72116;BME280;59991;52.140;5.428;2023-03-01T01:56:32;103197.50;;;-1.83;82.50
72116;BME280;59991;52.140;5.428;2023-03-01T01:57:07;103201.00;;;-1.83;82.47
72116;BME280;59991;52.140;5.428;2023-03-01T01:57:48;103196.69;;;-1.84;82.85
72116;BME280;59991;52.140;5.428;2023-03-01T01:58:21;103195.88;;;-1.84;82.84
72116;BME280;59991;52.140;5.428;2023-03-01T01:58:53;103193.22;;;-1.84;82.72
72116;BME280;59991;52.140;5.428;2023-03-01T01:59:25;103192.63;;;-1.86;82.66
72116;BME280;59991;52.140;5.428;2023-03-01T02:00:02;103196.94;;;-1.85;82.96
72116;BME280;59991;52.140;5.428;2023-03-01T02:00:34;103198.78;;;-1.86;83.04
72116;BME280;59991;52.140;5.428;2023-03-01T02:01:06;103200.66;;;-1.86;82.85
72116;BME280;59991;52.140;5.428;2023-03-01T02:01:38;103191.22;;;-1.89;82.82
72116;BME280;59991;52.140;5.428;2023-03-01T02:02:11;103182.75;;;-1.86;82.48
72116;BME280;59991;52.140;5.428;2023-03-01T02:02:44;103189.94;;;-1.86;82.54
72116;BME280;59991;52.140;5.428;2023-03-01T02:03:22;103188.09;;;-1.86;82.67
72116;BME280;59991;52.140;5.428;2023-03-01T02:03:54;103187.75;;;-1.89;82.57
72116;BME280;59991;52.140;5.428;2023-03-01T02:04:26;103195.53;;;-1.88;82.63
72116;BME280;59991;52.140;5.428;2023-03-01T02:05:43;103189.38;;;-1.88;82.56
72116;BME280;59991;52.140;5.428;2023-03-01T02:06:31;103185.06;;;-1.89;82.72
72116;BME280;59991;52.140;5.428;2023-03-01T02:07:09;103184.50;;;-1.91;82.85
72116;BME280;59991;52.140;5.428;2023-03-01T02:07:42;103187.66;;;-1.94;82.70
72116;BME280;59991;52.140;5.428;2023-03-01T02:08:16;103183.34;;;-1.95;82.85
72116;BME280;59991;52.140;5.428;2023-03-01T02:08:50;103180.91;;;-1.97;82.90
72116;BME280;59991;52.140;5.428;2023-03-01T02:09:23;103188.13;;;-1.97;82.73
72116;BME280;59991;52.140;5.428;2023-03-01T02:09:55;103184.63;;;-1.98;83.10
72116;BME280;59991;52.140;5.428;2023-03-01T02:10:27;103181.16;;;-1.98;82.95
72116;BME280;59991;52.140;5.428;2023-03-01T02:11:00;103179.53;;;-1.99;83.06
72116;BME280;59991;52.140;5.428;2023-03-01T02:11:32;103181.38;;;-2.00;83.00
72116;BME280;59991;52.140;5.428;2023-03-01T02:12:04;103184.63;;;-1.98;83.28
72116;BME280;59991;52.140;5.428;2023-03-01T02:12:36;103182.19;;;-1.99;83.63
72116;BME280;59991;52.140;5.428;2023-03-01T02:13:09;103180.56;;;-2.00;83.55
72116;BME280;59991;52.140;5.428;2023-03-01T02:13:42;103181.72;;;-1.96;83.50
72116;BME280;59991;52.140;5.428;2023-03-01T02:14:14;103183.81;;;-1.98;83.61
72116;BME280;59991;52.140;5.428;2023-03-01T02:14:46;103185.22;;;-1.96;83.38
72116;BME280;59991;52.140;5.428;2023-03-01T02:15:18;103182.78;;;-1.97;83.53
72116;BME280;59991;52.140;5.428;2023-03-01T02:15:50;103187.31;;;-1.98;83.68
72116;BME280;59991;52.140;5.428;2023-03-01T02:16:22;103182.53;;;-1.96;83.65
72116;BME280;59991;52.140;5.428;2023-03-01T02:16:53;103188.94;;;-1.97;83.64
72116;BME280;59991;52.140;5.428;2023-03-01T02:17:25;103184.63;;;-1.98;83.48
72116;BME280;59991;52.140;5.428;2023-03-01T02:17:56;103185.44;;;-1.97;83.65
72116;BME280;59991;52.140;5.428;2023-03-01T02:18:28;103186.25;;;-1.97;83.70
72116;BME280;59991;52.140;5.428;2023-03-01T02:19:00;103190.81;;;-1.97;83.93
72116;BME280;59991;52.140;5.428;2023-03-01T02:22:33;103185.44;;;-1.97;83.52
72116;BME280;59991;52.140;5.428;2023-03-01T02:23:07;103181.16;;;-1.98;82.88
72116;BME280;59991;52.140;5.428;2023-03-01T02:23:39;103180.56;;;-2.00;83.03
72116;BME280;59991;52.140;5.428;2023-03-01T02:24:38;103190.81;;;-1.97;83.04
72116;BME280;59991;52.140;5.428;2023-03-01T02:26:07;103186.50;;;-1.98;82.55
72116;BME280;59991;52.140;5.428;2023-03-01T02:26:42;103180.34;;;-1.99;82.92
72116;BME280;59991;52.140;5.428;2023-03-01T02:27:18;103178.72;;;-2.00;82.34
72116;BME280;59991;52.140;5.428;2023-03-01T02:28:44;103176.03;;;-2.00;82.67
72116;BME280;59991;52.140;5.428;2023-03-01T02:29:16;103180.56;;;-2.00;82.75
72116;BME280;59991;52.140;5.428;2023-03-01T02:29:48;103178.72;;;-2.00;83.06
72116;BME280;59991;52.140;5.428;2023-03-01T02:30:21;103181.38;;;-2.00;82.95
72116;BME280;59991;52.140;5.428;2023-03-01T02:30:53;103182.66;;;-2.02;82.92
72116;BME280;59991;52.140;5.428;2023-03-01T02:31:43;103173.59;;;-2.01;82.96
72116;BME280;59991;52.140;5.428;2023-03-01T02:32:17;103181.63;;;-2.01;82.96
72116;BME280;59991;52.140;5.428;2023-03-01T02:32:56;103178.94;;;-2.01;83.02
72116;BME280;59991;52.140;5.428;2023-03-01T02:33:36;103174.41;;;-2.01;82.65
72116;BME280;59991;52.140;5.428;2023-03-01T02:34:15;103167.09;;;-2.05;82.72
72116;BME280;59991;52.140;5.428;2023-03-01T02:34:46;103169.53;;;-2.04;83.02
72116;BME280;59991;52.140;5.428;2023-03-01T02:35:19;103171.97;;;-2.02;82.73
72116;BME280;59991;52.140;5.428;2023-03-01T02:35:53;103171.16;;;-2.03;82.71
72116;BME280;59991;52.140;5.428;2023-03-01T02:36:29;103172.78;;;-2.02;82.63
72116;BME280;59991;52.140;5.428;2023-03-01T02:37:11;103171.97;;;-2.02;82.63
72116;BME280;59991;52.140;5.428;2023-03-01T02:37:44;103172.19;;;-2.04;82.93
72116;BME280;59991;52.140;5.428;2023-03-01T02:38:15;103167.66;;;-2.03;83.11
72116;BME280;59991;52.140;5.428;2023-03-01T02:38:48;103167.66;;;-2.03;83.24
72116;BME280;59991;52.140;5.428;2023-03-01T02:39:27;103171.97;;;-2.02;83.52
72116;BME280;59991;52.140;5.428;2023-03-01T02:40:04;103162.56;;;-2.05;83.30
72116;BME280;59991;52.140;5.428;2023-03-01T02:40:37;103166.28;;;-2.06;83.52
72116;BME280;59991;52.140;5.428;2023-03-01T02:41:11;103158.25;;;-2.06;83.62
72116;BME280;59991;52.140;5.428;2023-03-01T02:41:50;103165.47;;;-2.06;83.47
72116;BME280;59991;52.140;5.428;2023-03-01T02:42:27;103163.59;;;-2.06;83.70
72116;BME280;59991;52.140;5.428;2023-03-01T02:42:59;103157.91;;;-2.10;83.50
72116;BME280;59991;52.140;5.428;2023-03-01T02:43:32;103159.53;;;-2.09;83.54
72116;BME280;59991;52.140;5.428;2023-03-01T02:44:05;103157.91;;;-2.10;83.60
72116;BME280;59991;52.140;5.428;2023-03-01T02:44:37;103161.63;;;-2.11;83.95
72116;BME280;59991;52.140;5.428;2023-03-01T02:45:09;103152.78;;;-2.11;83.71
72116;BME280;59991;52.140;5.428;2023-03-01T02:45:51;103162.66;;;-2.12;83.46
72116;BME280;59991;52.140;5.428;2023-03-01T02:46:25;103161.88;;;-2.12;83.62
72116;BME280;59991;52.140;5.428;2023-03-01T02:47:01;103157.31;;;-2.12;83.45
72116;BME280;59991;52.140;5.428;2023-03-01T02:47:33;103161.88;;;-2.12;83.62
72116;BME280;59991;52.140;5.428;2023-03-01T02:48:04;103155.72;;;-2.13;83.51
72116;BME280;59991;52.140;5.428;2023-03-01T02:48:50;103158.94;;;-2.11;83.47
72116;BME280;59991;52.140;5.428;2023-03-01T02:49:27;103159.22;;;-2.12;83.53
72116;BME280;59991;52.140;5.428;2023-03-01T02:50:00;103155.72;;;-2.13;83.53
72116;BME280;59991;52.140;5.428;2023-03-01T02:50:46;103162.66;;;-2.12;83.61
72116;BME280;59991;52.140;5.428;2023-03-01T02:52:23;103154.09;;;-2.14;83.20
72116;BME280;59991;52.140;5.428;2023-03-01T02:53:12;103159.44;;;-2.14;83.66
72116;BME280;59991;52.140;5.428;2023-03-01T02:53:56;103158.63;;;-2.14;83.14
72116;BME280;59991;52.140;5.428;2023-03-01T02:54:36;103157.00;;;-2.15;83.29
72116;BME280;59991;52.140;5.428;2023-03-01T02:55:13;103158.88;;;-2.16;83.54
72116;BME280;59991;52.140;5.428;2023-03-01T02:55:45;103159.09;;;-2.17;83.33
72116;BME280;59991;52.140;5.428;2023-03-01T02:56:17;103150.28;;;-2.18;83.48
72116;BME280;59991;52.140;5.428;2023-03-01T02:56:48;103154.44;;;-2.22;83.69
72116;BME280;59991;52.140;5.428;2023-03-01T02:57:21;103155.63;;;-2.18;83.74
72116;BME280;59991;52.140;5.428;2023-03-01T02:57:55;103153.41;;;-2.21;83.63
72116;BME280;59991;52.140;5.428;2023-03-01T02:58:27;103155.03;;;-2.20;83.59
72116;BME280;59991;52.140;5.428;2023-03-01T02:58:59;103147.72;;;-2.24;83.83
72116;BME280;59991;52.140;5.428;2023-03-01T02:59:34;103149.34;;;-2.23;83.69
72116;BME280;59991;52.140;5.428;2023-03-01T03:00:34;103147.94;;;-2.26;83.84
72116;BME280;59991;52.140;5.428;2023-03-01T03:01:14;103152.59;;;-2.21;83.73
72116;BME280;59991;52.140;5.428;2023-03-01T03:01:47;103149.09;;;-2.22;83.83
72116;BME280;59991;52.140;5.428;2023-03-01T03:02:24;103151.78;;;-2.22;84.10
72116;BME280;59991;52.140;5.428;2023-03-01T03:03:09;103152.81;;;-2.23;83.69
72116;BME280;59991;52.140;5.428;2023-03-01T03:03:42;103153.88;;;-2.24;83.51
72116;BME280;59991;52.140;5.428;2023-03-01T03:04:16;103152.81;;;-2.23;83.60